KCFV/CFV METAR and TAF weather

Enter ICAO airport designator
Station Type Date Time Source
KCFV METAR 2024/02/26 17:59 UTC NOAA

KCFV 261759Z AUTO 19009KT 10SM CLR 20/09 A2967 RMK AO2 T02000089


Station Type Date Time Source
KCFV Decoded METAR 2024/02/26 17:59 UTC NOAA

COFFEYVILLE MUNICIPAL AIRPORT , KS, United States (KCFV) 37-05N 95-34W 225M
Feb 26, 2024 - 12:59 PM EST / 2024.02.26 1759 UTC
Wind: from the S (190 degrees) at 10 MPH (9 KT):0
Visibility: 10 mile(s):0
Sky conditions: clear
Temperature: 68.0 F (20.0 C)
Dew Point: 48.0 F (8.9 C)
Relative Humidity: 48%
Pressure (altimeter): 29.67 in. Hg (1004 hPa)
ob: KCFV 261759Z AUTO 19009KT 10SM CLR 20/09 A2967 RMK AO2 T02000089
cycle: 18

Station Type Date Time Source
KCFV TAF UTC NOAA

Error!

Example: see airport list